Time;durP1;ratioP1;P1;durP2;ratioP2;P2;SDS_P1;SDS_P2;PMS_P1;PMS_P2;Temp;Humidity;BMP_temperature;BMP_pressure;BME280_temperature;BME280_humidity;BME280_pressure;Samples;Min_cycle;Max_cycle;Signal;HPM_P1;HPM_P2
2022/12/15 00:40:58;;;;;;;0.20;0.20;;;;;;;;;;4978781;28;20209;-78
2022/12/15 00:43:28;;;;;;;0.20;0.20;;;;;;;;;;4978626;28;20202;-78
2022/12/15 00:48:44;;;;;;;0.20;0.20;;;;;;;;;;4978775;28;20214;-78
2022/12/15 00:51:11;;;;;;;0.20;0.20;;;;;;;;;;4978660;28;20601;-78
2022/12/15 01:21:25;;;;;;;0.30;0.30;;;;;;;;;;4977871;28;20687;-80
2022/12/15 01:23:54;;;;;;;0.20;0.20;;;;;;;;;;4977244;28;20209;-80
2022/12/15 01:26:22;;;;;;;0.30;0.30;;;;;;;;;;4977729;28;20249;-78
2022/12/15 01:28:51;;;;;;;0.20;0.20;;;;;;;;;;4977108;28;20249;-81
2022/12/15 01:31:21;;;;;;;0.20;0.20;;;;;;;;;;4977131;28;20245;-77
2022/12/15 01:33:49;;;;;;;0.20;0.20;;;;;;;;;;4977578;28;20225;-80
2022/12/15 01:36:18;;;;;;;0.30;0.30;;;;;;;;;;4977013;28;20320;-82
2022/12/15 01:38:46;;;;;;;0.30;0.30;;;;;;;;;;4977514;28;20213;-78
2022/12/15 01:41:20;;;;;;;0.20;0.20;;;;;;;;;;4977468;28;20198;-81
2022/12/15 01:43:49;;;;;;;0.30;0.30;;;;;;;;;;4977469;28;20201;-79
2022/12/15 01:46:19;;;;;;;0.20;0.20;;;;;;;;;;4977281;28;20639;-79
2022/12/15 01:48:50;;;;;;;0.30;0.30;;;;;;;;;;4977069;28;20194;-79
2022/12/15 01:51:23;;;;;;;0.20;0.20;;;;;;;;;;4977290;28;20627;-78
2022/12/15 01:53:54;;;;;;;0.20;0.20;;;;;;;;;;4976977;28;20209;-78
2022/12/15 01:56:24;;;;;;;0.20;0.20;;;;;;;;;;4977202;28;20595;-78
2022/12/15 01:58:54;;;;;;;0.20;0.20;;;;;;;;;;4977397;28;20218;-79
2022/12/15 02:01:22;;;;;;;0.23;0.23;;;;;;;;;;4976711;28;20252;-78
2022/12/15 02:03:52;;;;;;;0.23;0.23;;;;;;;;;;4977004;28;20202;-78
2022/12/15 02:06:23;;;;;;;0.20;0.20;;;;;;;;;;4978047;28;20840;-78
2022/12/15 02:08:54;;;;;;;0.20;0.20;;;;;;;;;;4978554;28;20218;-78
2022/12/15 02:11:35;;;;;;;0.20;0.20;;;;;;;;;;4977938;28;20233;-79
2022/12/15 02:14:05;;;;;;;0.20;0.20;;;;;;;;;;4977788;28;20759;-78
2022/12/15 02:16:39;;;;;;;0.20;0.20;;;;;;;;;;4977790;28;20250;-79
2022/12/15 02:19:19;;;;;;;0.20;0.20;;;;;;;;;;4977354;28;20217;-79
2022/12/15 02:21:56;;;;;;;0.30;0.30;;;;;;;;;;4976599;28;20648;-79
2022/12/15 02:24:57;;;;;;;0.20;0.20;;;;;;;;;;4976537;28;20233;-78
2022/12/15 02:27:34;;;;;;;0.20;0.20;;;;;;;;;;4976512;28;20263;-81
2022/12/15 02:30:20;;;;;;;0.20;0.20;;;;;;;;;;4976751;28;20221;-78
2022/12/15 02:32:55;;;;;;;0.20;0.20;;;;;;;;;;4977047;28;20242;-81
2022/12/15 02:35:26;;;;;;;0.20;0.20;;;;;;;;;;4976270;28;20267;-78
2022/12/15 02:37:55;;;;;;;0.20;0.20;;;;;;;;;;4976299;28;20190;-79
2022/12/15 02:40:24;;;;;;;0.20;0.20;;;;;;;;;;4976392;28;20281;-82
2022/12/15 02:42:53;;;;;;;0.20;0.20;;;;;;;;;;4976648;28;20705;-79
2022/12/15 02:45:24;;;;;;;0.20;0.20;;;;;;;;;;4975972;28;20651;-79
2022/12/15 02:47:59;;;;;;;0.20;0.20;;;;;;;;;;4976277;28;20197;-81
2022/12/15 02:50:40;;;;;;;0.20;0.20;;;;;;;;;;4975872;28;20229;-79
2022/12/15 02:53:14;;;;;;;0.20;0.20;;;;;;;;;;4976275;28;20217;-78
2022/12/15 02:55:49;;;;;;;0.20;0.20;;;;;;;;;;4976027;28;20733;-78
2022/12/15 02:58:21;;;;;;;0.20;0.20;;;;;;;;;;4976281;28;20197;-78
2022/12/15 03:00:53;;;;;;;0.20;0.20;;;;;;;;;;4976366;28;20678;-78
2022/12/15 03:03:23;;;;;;;0.20;0.20;;;;;;;;;;4976257;28;20218;-78
2022/12/15 03:05:53;;;;;;;0.20;0.20;;;;;;;;;;4975516;28;20226;-78
2022/12/15 03:08:22;;;;;;;0.20;0.20;;;;;;;;;;4977022;28;20210;-78
2022/12/15 03:10:51;;;;;;;0.20;0.20;;;;;;;;;;4977114;28;20210;-78
2022/12/15 03:13:20;;;;;;;0.27;0.27;;;;;;;;;;4976488;28;20308;-78
2022/12/15 03:15:48;;;;;;;0.23;0.23;;;;;;;;;;4976544;28;20253;-79
2022/12/15 03:18:17;;;;;;;0.20;0.20;;;;;;;;;;4976699;28;20285;-79
2022/12/15 03:20:47;;;;;;;0.20;0.20;;;;;;;;;;4968396;28;20206;-77
2022/12/15 03:23:16;;;;;;;0.20;0.20;;;;;;;;;;4975746;28;20213;-78
2022/12/15 03:25:45;;;;;;;0.20;0.20;;;;;;;;;;4975791;28;20229;-77
2022/12/15 03:28:17;;;;;;;0.20;0.20;;;;;;;;;;4975499;28;20226;-79
2022/12/15 03:30:45;;;;;;;0.20;0.20;;;;;;;;;;4975683;28;20332;-79
2022/12/15 03:33:18;;;;;;;0.20;0.20;;;;;;;;;;4975275;28;20201;-78
2022/12/15 03:35:48;;;;;;;0.20;0.20;;;;;;;;;;4975854;28;20262;-78
2022/12/15 03:38:17;;;;;;;0.20;0.20;;;;;;;;;;4975625;28;20238;-78
2022/12/15 03:40:45;;;;;;;0.20;0.20;;;;;;;;;;4975666;28;20241;-78
2022/12/15 03:43:14;;;;;;;0.20;0.20;;;;;;;;;;4975607;28;20297;-78
2022/12/15 03:45:42;;;;;;;0.20;0.20;;;;;;;;;;4975403;28;20267;-78
2022/12/15 03:48:11;;;;;;;0.20;0.20;;;;;;;;;;4974951;28;20602;-77
2022/12/15 03:50:39;;;;;;;0.20;0.20;;;;;;;;;;4975207;28;20676;-81
2022/12/15 03:53:09;;;;;;;0.20;0.20;;;;;;;;;;4974994;28;20260;-84
2022/12/15 03:55:38;;;;;;;0.20;0.20;;;;;;;;;;4975130;28;20226;-78
2022/12/15 03:58:06;;;;;;;0.10;0.10;;;;;;;;;;4974525;28;20209;-79
2022/12/15 04:00:35;;;;;;;0.20;0.20;;;;;;;;;;4974856;28;20213;-78
2022/12/15 04:03:04;;;;;;;0.20;0.20;;;;;;;;;;4975246;28;20296;-78
2022/12/15 04:05:34;;;;;;;0.20;0.20;;;;;;;;;;4974924;28;20270;-78
2022/12/15 04:08:02;;;;;;;0.20;0.20;;;;;;;;;;4975490;28;20617;-78
2022/12/15 04:10:33;;;;;;;0.20;0.20;;;;;;;;;;4975038;28;20290;-78
2022/12/15 04:13:03;;;;;;;0.20;0.20;;;;;;;;;;4975417;28;20221;-81
2022/12/15 04:15:32;;;;;;;0.20;0.20;;;;;;;;;;4975099;28;20666;-80
2022/12/15 04:18:01;;;;;;;0.20;0.20;;;;;;;;;;4975449;28;20260;-78
2022/12/15 04:20:29;;;;;;;0.30;0.30;;;;;;;;;;4975044;28;20266;-78
2022/12/15 04:22:59;;;;;;;0.20;0.20;;;;;;;;;;4974964;28;20241;-83
2022/12/15 05:32:12;;;;;;;0.20;0.20;;;;;;;;;;4978018;28;20649;-84
2022/12/15 05:34:42;;;;;;;0.20;0.20;;;;;;;;;;4976496;28;20330;-82
2022/12/15 05:37:10;;;;;;;0.20;0.20;;;;;;;;;;4977200;28;20399;-85
2022/12/15 05:39:39;;;;;;;0.20;0.20;;;;;;;;;;4977616;28;20245;-83
2022/12/15 05:42:08;;;;;;;0.20;0.20;;;;;;;;;;4977447;28;20208;-78
2022/12/15 05:44:36;;;;;;;0.17;0.17;;;;;;;;;;4977788;28;20217;-78
2022/12/15 05:47:05;;;;;;;0.20;0.20;;;;;;;;;;4978081;28;20221;-78
2022/12/15 05:49:34;;;;;;;0.20;0.20;;;;;;;;;;4977918;28;20256;-83
2022/12/15 05:52:04;;;;;;;0.20;0.20;;;;;;;;;;4977855;28;20596;-81
2022/12/15 05:54:33;;;;;;;0.30;0.30;;;;;;;;;;4979734;28;20252;-83
2022/12/15 05:57:02;;;;;;;0.20;0.20;;;;;;;;;;4997119;28;20314;-85
2022/12/15 05:59:32;;;;;;;0.20;0.20;;;;;;;;;;4996675;28;20244;-81
2022/12/15 06:02:01;;;;;;;0.20;0.20;;;;;;;;;;4996639;28;20393;-85
2022/12/15 06:04:31;;;;;;;0.20;0.20;;;;;;;;;;4995309;28;20823;-79
2022/12/15 06:06:59;;;;;;;0.20;0.20;;;;;;;;;;4996850;28;20209;-78
2022/12/15 06:09:29;;;;;;;0.20;0.20;;;;;;;;;;4996472;28;20244;-81
2022/12/15 06:11:57;;;;;;;0.20;0.20;;;;;;;;;;4996463;28;20731;-83
2022/12/15 06:14:26;;;;;;;0.20;0.20;;;;;;;;;;4996686;28;20253;-80
2022/12/15 06:16:54;;;;;;;0.20;0.20;;;;;;;;;;4996649;28;20244;-81
2022/12/15 06:19:23;;;;;;;0.20;0.20;;;;;;;;;;4996558;28;20207;-81
2022/12/15 06:21:52;;;;;;;0.20;0.20;;;;;;;;;;4996109;28;20626;-82
2022/12/15 06:24:20;;;;;;;0.20;0.20;;;;;;;;;;4996046;28;20230;-85
2022/12/15 06:26:50;;;;;;;0.20;0.20;;;;;;;;;;4996463;28;20293;-78
2022/12/15 06:29:19;;;;;;;0.20;0.20;;;;;;;;;;4996136;28;20626;-87
2022/12/15 06:31:48;;;;;;;0.20;0.20;;;;;;;;;;4996779;28;20207;-89
2022/12/15 06:34:17;;;;;;;0.20;0.20;;;;;;;;;;4996867;28;20734;-78
2022/12/15 06:36:46;;;;;;;0.20;0.20;;;;;;;;;;4995713;28;20313;-86
2022/12/15 06:39:16;;;;;;;0.20;0.20;;;;;;;;;;4996045;28;20214;-80
2022/12/15 06:41:45;;;;;;;0.20;0.20;;;;;;;;;;4996260;28;20299;-86
2022/12/15 06:44:16;;;;;;;0.20;0.20;;;;;;;;;;4995794;28;20205;-86
2022/12/15 06:46:45;;;;;;;0.20;0.20;;;;;;;;;;4996097;28;20288;-82
2022/12/15 06:49:14;;;;;;;0.20;0.20;;;;;;;;;;4995670;28;20208;-82
2022/12/15 06:51:43;;;;;;;0.20;0.20;;;;;;;;;;4995779;28;20258;-82
2022/12/15 06:54:12;;;;;;;0.20;0.20;;;;;;;;;;4995827;28;20684;-84
2022/12/15 06:56:41;;;;;;;0.20;0.20;;;;;;;;;;4996309;28;20752;-79
2022/12/15 06:59:11;;;;;;;0.20;0.20;;;;;;;;;;4996605;28;20203;-78
2022/12/15 07:01:41;;;;;;;0.20;0.20;;;;;;;;;;4996327;28;20198;-82
2022/12/15 07:04:10;;;;;;;0.20;0.20;;;;;;;;;;4995546;28;20192;-84
2022/12/15 07:06:41;;;;;;;0.20;0.20;;;;;;;;;;4995473;28;20205;-81
2022/12/15 07:09:14;;;;;;;0.20;0.20;;;;;;;;;;4995435;28;20209;-79
2022/12/15 07:11:44;;;;;;;0.20;0.20;;;;;;;;;;4995772;28;20209;-84
2022/12/15 07:14:12;;;;;;;0.20;0.20;;;;;;;;;;4995610;28;20218;-79
2022/12/15 07:16:44;;;;;;;0.20;0.20;;;;;;;;;;4995298;28;20694;-85
2022/12/15 07:19:13;;;;;;;0.20;0.20;;;;;;;;;;4995180;28;20197;-81
2022/12/15 07:21:41;;;;;;;0.20;0.20;;;;;;;;;;4995053;28;20560;-79
2022/12/15 07:24:11;;;;;;;0.20;0.20;;;;;;;;;;4994965;28;20201;-80
2022/12/15 07:26:39;;;;;;;0.20;0.20;;;;;;;;;;4995133;28;20731;-79
2022/12/15 07:29:08;;;;;;;0.20;0.20;;;;;;;;;;4995052;28;20658;-82
2022/12/15 07:31:36;;;;;;;0.30;0.30;;;;;;;;;;4994526;28;20216;-82
2022/12/15 07:34:06;;;;;;;0.20;0.20;;;;;;;;;;4994004;28;20243;-81
2022/12/15 07:36:35;;;;;;;0.20;0.20;;;;;;;;;;4993989;28;20336;-83
2022/12/15 07:39:04;;;;;;;0.20;0.20;;;;;;;;;;4993080;28;20297;-85
2022/12/15 07:41:33;;;;;;;0.20;0.20;;;;;;;;;;4992821;28;20306;-83
2022/12/15 07:44:02;;;;;;;0.20;0.20;;;;;;;;;;4992903;28;20251;-80
2022/12/15 07:46:30;;;;;;;0.20;0.20;;;;;;;;;;4993754;28;20308;-83
2022/12/15 07:48:59;;;;;;;0.20;0.20;;;;;;;;;;4993782;28;20682;-80
2022/12/15 07:51:29;;;;;;;0.20;0.20;;;;;;;;;;4993722;28;20233;-80
2022/12/15 07:53:57;;;;;;;0.20;0.20;;;;;;;;;;4994160;28;20207;-80
2022/12/15 07:56:26;;;;;;;0.20;0.20;;;;;;;;;;4994538;28;20261;-82
2022/12/15 07:58:54;;;;;;;0.20;0.20;;;;;;;;;;4994689;28;20735;-82
2022/12/15 08:01:23;;;;;;;0.20;0.20;;;;;;;;;;4994559;28;20621;-80
2022/12/15 08:03:52;;;;;;;0.20;0.20;;;;;;;;;;4994364;28;20621;-83
2022/12/15 08:06:20;;;;;;;0.20;0.20;;;;;;;;;;4994202;28;20217;-86
2022/12/15 08:08:50;;;;;;;0.20;0.20;;;;;;;;;;4994413;28;20262;-82
2022/12/15 08:11:19;;;;;;;0.20;0.20;;;;;;;;;;4994564;28;20621;-79
2022/12/15 08:13:48;;;;;;;0.20;0.20;;;;;;;;;;4994306;28;20206;-79
2022/12/15 08:16:30;;;;;;;0.20;0.20;;;;;;;;;;4993988;28;20279;-85
2022/12/15 08:18:58;;;;;;;0.20;0.20;;;;;;;;;;4994714;28;20675;-83
2022/12/15 08:21:27;;;;;;;0.20;0.20;;;;;;;;;;4994539;28;20726;-84
2022/12/15 08:23:57;;;;;;;0.10;0.10;;;;;;;;;;4993853;28;20246;-82
2022/12/15 08:26:25;;;;;;;0.20;0.20;;;;;;;;;;4994244;28;20230;-85
2022/12/15 08:28:58;;;;;;;0.20;0.20;;;;;;;;;;4994282;28;20212;-81
2022/12/15 08:31:47;;;;;;;0.20;0.20;;;;;;;;;;4993776;28;20212;-83
2022/12/15 08:34:15;;;;;;;0.20;0.20;;;;;;;;;;4994099;28;20633;-79
2022/12/15 08:36:44;;;;;;;0.10;0.10;;;;;;;;;;4993995;28;20232;-85
2022/12/15 08:39:14;;;;;;;0.10;0.10;;;;;;;;;;4994064;28;20205;-83
2022/12/15 08:41:42;;;;;;;0.10;0.10;;;;;;;;;;4994293;28;20209;-85
2022/12/15 08:44:11;;;;;;;0.10;0.10;;;;;;;;;;4995086;28;20243;-81
2022/12/15 08:46:39;;;;;;;0.10;0.10;;;;;;;;;;4998043;28;20201;-79
2022/12/15 08:49:08;;;;;;;0.10;0.10;;;;;;;;;;4998312;28;20205;-78
2022/12/15 08:51:37;;;;;;;0.10;0.10;;;;;;;;;;4997875;28;20209;-79
2022/12/15 08:54:05;;;;;;;0.10;0.10;;;;;;;;;;4997687;28;20253;-81
2022/12/15 08:56:36;;;;;;;0.10;0.10;;;;;;;;;;4997820;28;20260;-79
2022/12/15 08:59:04;;;;;;;0.10;0.10;;;;;;;;;;4997998;28;20283;-80
2022/12/15 09:01:38;;;;;;;0.10;0.10;;;;;;;;;;4997414;28;20240;-79
2022/12/15 09:04:07;;;;;;;0.10;0.10;;;;;;;;;;4997775;28;20193;-81
2022/12/15 09:06:36;;;;;;;0.10;0.10;;;;;;;;;;4997279;28;20222;-82
2022/12/15 09:09:07;;;;;;;0.10;0.10;;;;;;;;;;4997157;28;20237;-79
2022/12/15 09:11:37;;;;;;;0.10;0.10;;;;;;;;;;4998187;28;20277;-79
2022/12/15 09:14:06;;;;;;;0.10;0.10;;;;;;;;;;4997405;28;20237;-79
2022/12/15 09:16:35;;;;;;;0.10;0.10;;;;;;;;;;4997595;28;20680;-81
2022/12/15 09:19:04;;;;;;;0.10;0.10;;;;;;;;;;4997244;28;20244;-79
2022/12/15 09:21:32;;;;;;;0.10;0.10;;;;;;;;;;4997231;28;20251;-79
2022/12/15 09:24:02;;;;;;;0.10;0.10;;;;;;;;;;4997323;28;20615;-79
2022/12/15 09:26:31;;;;;;;0.10;0.10;;;;;;;;;;4997147;28;20315;-81
2022/12/15 09:29:01;;;;;;;0.10;0.10;;;;;;;;;;4997325;28;20207;-79
2022/12/15 09:31:31;;;;;;;0.10;0.10;;;;;;;;;;4996789;28;20251;-79
2022/12/15 09:34:01;;;;;;;0.10;0.10;;;;;;;;;;4982751;28;20215;-80
2022/12/15 09:36:31;;;;;;;0.10;0.10;;;;;;;;;;4977497;28;20640;-79
2022/12/15 09:39:01;;;;;;;0.10;0.10;;;;;;;;;;4977379;28;20197;-79
2022/12/15 09:41:31;;;;;;;0.10;0.10;;;;;;;;;;4977235;28;20234;-79
2022/12/15 09:44:01;;;;;;;0.10;0.10;;;;;;;;;;4977377;28;20208;-79
2022/12/15 09:46:45;;;;;;;0.10;0.10;;;;;;;;;;4977499;28;20274;-79
2022/12/15 09:49:21;;;;;;;0.10;0.10;;;;;;;;;;4977404;28;20661;-80
2022/12/15 09:51:54;;;;;;;0.10;0.10;;;;;;;;;;4982139;28;20239;-82
2022/12/15 09:54:24;;;;;;;0.10;0.10;;;;;;;;;;4996353;28;20192;-81
2022/12/15 09:56:55;;;;;;;0.10;0.10;;;;;;;;;;4996137;28;20583;-78
2022/12/15 09:59:30;;;;;;;0.10;0.10;;;;;;;;;;4996793;28;20617;-79
2022/12/15 10:02:10;;;;;;;0.10;0.10;;;;;;;;;;4996237;28;20193;-81
2022/12/15 10:04:43;;;;;;;0.10;0.10;;;;;;;;;;4996632;28;20231;-79
2022/12/15 10:07:15;;;;;;;0.10;0.10;;;;;;;;;;4996770;28;20190;-78
2022/12/15 10:09:44;;;;;;;0.10;0.10;;;;;;;;;;4996913;28;20188;-81
2022/12/15 10:12:17;;;;;;;0.10;0.10;;;;;;;;;;4996966;28;20657;-80
2022/12/15 10:14:49;;;;;;;0.10;0.10;;;;;;;;;;4988936;28;20315;-79
2022/12/15 10:17:22;;;;;;;0.10;0.10;;;;;;;;;;4996801;28;20243;-83
2022/12/15 10:19:55;;;;;;;0.00;0.00;;;;;;;;;;4997419;28;20539;-86
2022/12/15 10:22:25;;;;;;;0.03;0.03;;;;;;;;;;4997029;28;20200;-81
2022/12/15 10:24:54;;;;;;;0.10;0.10;;;;;;;;;;4996547;28;20259;-86
2022/12/15 10:27:52;;;;;;;0.10;0.10;;;;;;;;;;4996683;28;20187;-82
2022/12/15 10:30:21;;;;;;;0.10;0.10;;;;;;;;;;4996864;28;20218;-84
2022/12/15 10:32:55;;;;;;;0.10;0.10;;;;;;;;;;4996754;28;20735;-85
2022/12/15 10:35:24;;;;;;;0.10;0.10;;;;;;;;;;4996437;28;20226;-85
2022/12/15 10:37:57;;;;;;;0.10;0.10;;;;;;;;;;4996135;28;20228;-79
2022/12/15 10:40:40;;;;;;;0.10;0.10;;;;;;;;;;4996628;28;20519;-81
2022/12/15 10:43:14;;;;;;;0.10;0.10;;;;;;;;;;4996238;28;20637;-82
2022/12/15 10:45:43;;;;;;;0.10;0.10;;;;;;;;;;4995831;28;20232;-80
2022/12/15 10:48:20;;;;;;;0.10;0.10;;;;;;;;;;4996080;28;20238;-78
2022/12/15 10:50:49;;;;;;;0.10;0.10;;;;;;;;;;4995962;28;20195;-83
2022/12/15 10:53:32;;;;;;;0.10;0.10;;;;;;;;;;4995470;28;20212;-80
2022/12/15 10:56:01;;;;;;;0.10;0.10;;;;;;;;;;4995863;28;20224;-78
2022/12/15 10:58:30;;;;;;;0.10;0.10;;;;;;;;;;4995590;28;20235;-79
2022/12/15 11:01:06;;;;;;;0.10;0.10;;;;;;;;;;4995726;28;20214;-78
2022/12/15 11:03:38;;;;;;;0.10;0.10;;;;;;;;;;4995449;28;20195;-79
2022/12/15 11:06:11;;;;;;;0.10;0.10;;;;;;;;;;4996029;28;20573;-79
2022/12/15 11:08:42;;;;;;;0.10;0.10;;;;;;;;;;4996164;28;20212;-82
2022/12/15 11:14:14;;;;;;;0.10;0.10;;;;;;;;;;4995214;28;20212;-81
2022/12/15 11:16:53;;;;;;;0.10;0.10;;;;;;;;;;4996678;28;20200;-79
2022/12/15 11:19:39;;;;;;;0.00;0.00;;;;;;;;;;4995605;28;20203;-81
2022/12/15 11:22:13;;;;;;;0.10;0.10;;;;;;;;;;4995451;28;20592;-80
2022/12/15 11:24:46;;;;;;;0.10;0.10;;;;;;;;;;4994445;28;20270;-82
2022/12/15 11:27:20;;;;;;;0.10;0.10;;;;;;;;;;4994571;28;20200;-81
2022/12/15 11:29:54;;;;;;;0.10;0.10;;;;;;;;;;4993680;28;20200;-80
2022/12/15 11:32:24;;;;;;;0.10;0.10;;;;;;;;;;4995126;28;20195;-79
2022/12/15 11:34:55;;;;;;;0.10;0.10;;;;;;;;;;4994587;28;20220;-79
2022/12/15 11:37:34;;;;;;;0.10;0.10;;;;;;;;;;4995092;28;20233;-80
2022/12/15 11:40:17;;;;;;;0.10;0.10;;;;;;;;;;4995138;28;20221;-79
2022/12/15 11:42:50;;;;;;;0.10;0.10;;;;;;;;;;4995228;28;20274;-80
2022/12/15 11:45:20;;;;;;;0.10;0.10;;;;;;;;;;4994926;28;20236;-82
2022/12/15 11:47:50;;;;;;;0.10;0.10;;;;;;;;;;4995672;28;20204;-80
2022/12/15 11:50:30;;;;;;;0.10;0.10;;;;;;;;;;4995208;28;20594;-79
2022/12/15 11:53:17;;;;;;;0.10;0.10;;;;;;;;;;4995066;28;20195;-80
2022/12/15 11:55:52;;;;;;;0.10;0.10;;;;;;;;;;4995783;28;20628;-82
2022/12/15 11:58:30;;;;;;;0.10;0.10;;;;;;;;;;4994602;28;20251;-79
2022/12/15 12:01:03;;;;;;;0.10;0.10;;;;;;;;;;4994679;28;20192;-79
2022/12/15 12:03:37;;;;;;;0.10;0.10;;;;;;;;;;4994561;28;20274;-79
2022/12/15 12:06:12;;;;;;;0.10;0.10;;;;;;;;;;4994723;28;20696;-79
2022/12/15 12:08:56;;;;;;;0.10;0.10;;;;;;;;;;4994626;28;20219;-79
2022/12/15 12:11:28;;;;;;;0.10;0.10;;;;;;;;;;4994311;28;20188;-79
2022/12/15 12:14:05;;;;;;;0.10;0.10;;;;;;;;;;4994133;28;20713;-79
2022/12/15 12:16:57;;;;;;;0.10;0.10;;;;;;;;;;4994332;28;20205;-81
2022/12/15 12:19:28;;;;;;;0.10;0.10;;;;;;;;;;4996164;28;20253;-79
2022/12/15 12:21:59;;;;;;;0.10;0.10;;;;;;;;;;4989073;28;20296;-81
2022/12/15 12:24:31;;;;;;;0.10;0.10;;;;;;;;;;4978629;28;20245;-77
2022/12/15 12:27:01;;;;;;;0.10;0.10;;;;;;;;;;4978451;28;20263;-77
2022/12/15 12:29:32;;;;;;;0.10;0.10;;;;;;;;;;4977801;28;20213;-77
2022/12/15 12:32:04;;;;;;;0.10;0.10;;;;;;;;;;4978561;28;20241;-77
2022/12/15 12:34:35;;;;;;;0.10;0.10;;;;;;;;;;4977667;28;20268;-77
2022/12/15 12:37:14;;;;;;;0.10;0.10;;;;;;;;;;4977315;28;20289;-78
2022/12/15 12:39:43;;;;;;;0.10;0.10;;;;;;;;;;4978205;28;20745;-77
2022/12/15 12:42:16;;;;;;;0.10;0.10;;;;;;;;;;4977898;28;20665;-77
2022/12/15 12:44:45;;;;;;;0.10;0.10;;;;;;;;;;4977569;28;20240;-77
2022/12/15 12:47:17;;;;;;;0.10;0.10;;;;;;;;;;4977735;28;20231;-77
2022/12/15 12:49:47;;;;;;;0.10;0.10;;;;;;;;;;4978228;28;20242;-77
2022/12/15 12:52:23;;;;;;;0.10;0.10;;;;;;;;;;4978902;28;20194;-77
2022/12/15 12:54:56;;;;;;;0.10;0.10;;;;;;;;;;4977578;28;20257;-78
2022/12/15 12:57:30;;;;;;;0.10;0.10;;;;;;;;;;4977980;28;20543;-77
2022/12/15 13:00:01;;;;;;;0.10;0.10;;;;;;;;;;4977815;28;20245;-80
2022/12/15 13:02:59;;;;;;;0.10;0.10;;;;;;;;;;4975482;28;20212;-78
2022/12/15 13:05:30;;;;;;;0.00;0.00;;;;;;;;;;4965627;28;20270;-77
2022/12/15 13:08:13;;;;;;;0.10;0.10;;;;;;;;;;4959386;28;20202;-77
2022/12/15 13:10:43;;;;;;;0.03;0.03;;;;;;;;;;4996929;28;20299;-80
2022/12/15 13:13:35;;;;;;;0.10;0.10;;;;;;;;;;4996837;28;20216;-77
2022/12/15 13:16:07;;;;;;;0.10;0.10;;;;;;;;;;4987913;28;20229;-77
2022/12/15 13:18:50;;;;;;;0.10;0.10;;;;;;;;;;4977647;28;20225;-76
2022/12/15 13:21:34;;;;;;;0.10;0.10;;;;;;;;;;4976879;28;20245;-77
2022/12/15 13:24:03;;;;;;;0.10;0.10;;;;;;;;;;4976388;28;20291;-77
2022/12/15 13:26:33;;;;;;;0.10;0.10;;;;;;;;;;4976505;28;20690;-79
2022/12/15 13:29:01;;;;;;;0.10;0.10;;;;;;;;;;4976576;28;20277;-77
2022/12/15 13:31:31;;;;;;;0.10;0.10;;;;;;;;;;4975458;28;20271;-77
2022/12/15 13:34:27;;;;;;;0.10;0.10;;;;;;;;;;4976769;28;20204;-77
2022/12/15 13:36:57;;;;;;;0.10;0.10;;;;;;;;;;4977266;28;20240;-79
2022/12/15 13:39:33;;;;;;;0.10;0.10;;;;;;;;;;4977277;28;20229;-78
2022/12/15 13:42:20;;;;;;;0.10;0.10;;;;;;;;;;4977161;28;20197;-79
2022/12/15 13:45:25;;;;;;;0.10;0.10;;;;;;;;;;4976739;28;20238;-77
2022/12/15 13:47:56;;;;;;;0.10;0.10;;;;;;;;;;4978806;28;20553;-77
2022/12/15 13:50:33;;;;;;;0.10;0.10;;;;;;;;;;4976363;28;20204;-77
2022/12/15 13:53:03;;;;;;;0.10;0.10;;;;;;;;;;4977346;28;20641;-77
2022/12/15 13:55:53;;;;;;;0.00;0.00;;;;;;;;;;4977014;28;20311;-77
2022/12/15 13:58:23;;;;;;;0.10;0.10;;;;;;;;;;4976774;28;20189;-77
2022/12/15 14:00:55;;;;;;;0.10;0.10;;;;;;;;;;4976802;28;20311;-78
2022/12/15 14:03:23;;;;;;;0.10;0.10;;;;;;;;;;4976860;28;20655;-79
2022/12/15 14:05:53;;;;;;;0.10;0.10;;;;;;;;;;4976225;28;20656;-78
2022/12/15 14:08:22;;;;;;;0.10;0.10;;;;;;;;;;4976562;28;20239;-77
2022/12/15 14:10:51;;;;;;;0.10;0.10;;;;;;;;;;4631068;28;9999906;-77
2022/12/15 14:13:21;;;;;;;0.10;0.10;;;;;;;;;;4969584;28;20575;-78
2022/12/15 14:15:52;;;;;;;0.10;0.10;;;;;;;;;;4970572;28;20239;-77
2022/12/15 14:18:31;;;;;;;0.10;0.10;;;;;;;;;;4981482;28;20693;-77
2022/12/15 14:21:01;;;;;;;0.10;0.10;;;;;;;;;;4953194;28;20196;-77
2022/12/15 14:23:30;;;;;;;0.10;0.10;;;;;;;;;;4955261;29;20677;-78
2022/12/15 14:26:04;;;;;;;0.10;0.10;;;;;;;;;;4955229;29;20225;-78
2022/12/15 14:28:34;;;;;;;0.10;0.10;;;;;;;;;;4955087;29;20633;-78
2022/12/15 14:31:04;;;;;;;0.10;0.10;;;;;;;;;;4955571;28;20333;-77
2022/12/15 14:33:37;;;;;;;0.10;0.10;;;;;;;;;;4992037;28;20254;-77
2022/12/15 14:36:08;;;;;;;0.10;0.10;;;;;;;;;;4980251;28;20228;-77
2022/12/15 14:38:40;;;;;;;0.10;0.10;;;;;;;;;;4973643;28;20593;-79
2022/12/15 14:41:14;;;;;;;0.10;0.10;;;;;;;;;;4963029;28;20233;-77
2022/12/15 14:43:43;;;;;;;0.10;0.10;;;;;;;;;;4988604;28;20243;-77
2022/12/15 14:46:31;;;;;;;0.10;0.10;;;;;;;;;;4968263;28;20672;-77
2022/12/15 14:49:03;;;;;;;0.10;0.10;;;;;;;;;;4973862;28;20639;-77
2022/12/15 14:51:33;;;;;;;0.10;0.10;;;;;;;;;;4973593;28;20247;-77
2022/12/15 14:54:01;;;;;;;0.10;0.10;;;;;;;;;;4973142;28;20223;-83
2022/12/15 14:56:30;;;;;;;0.10;0.10;;;;;;;;;;4973757;28;20227;-77
2022/12/15 14:59:02;;;;;;;0.10;0.10;;;;;;;;;;4973287;28;20641;-78
2022/12/15 15:01:34;;;;;;;0.10;0.10;;;;;;;;;;4973916;28;20261;-77
2022/12/15 15:04:05;;;;;;;0.10;0.10;;;;;;;;;;4973680;28;20195;-77
2022/12/15 15:06:35;;;;;;;0.10;0.10;;;;;;;;;;4973511;28;20264;-76
2022/12/15 15:09:12;;;;;;;0.10;0.10;;;;;;;;;;4973389;28;20200;-77
2022/12/15 15:11:42;;;;;;;0.10;0.10;;;;;;;;;;4973394;28;20826;-81
2022/12/15 15:14:13;;;;;;;0.10;0.10;;;;;;;;;;4973392;28;20577;-76
2022/12/15 15:16:42;;;;;;;0.10;0.10;;;;;;;;;;4974221;28;20253;-76
2022/12/15 15:19:17;;;;;;;0.10;0.10;;;;;;;;;;4975311;28;20235;-76
2022/12/15 15:21:46;;;;;;;0.10;0.10;;;;;;;;;;4974765;28;20229;-77
2022/12/15 15:24:23;;;;;;;0.10;0.10;;;;;;;;;;4974742;28;20206;-77
2022/12/15 15:26:52;;;;;;;0.10;0.10;;;;;;;;;;4974561;28;20585;-77
2022/12/15 15:29:37;;;;;;;0.10;0.10;;;;;;;;;;4974501;28;20204;-77
2022/12/15 15:32:07;;;;;;;0.10;0.10;;;;;;;;;;4971990;28;20661;-76
2022/12/15 15:34:37;;;;;;;0.10;0.10;;;;;;;;;;4974420;28;20227;-76
2022/12/15 15:37:06;;;;;;;0.10;0.10;;;;;;;;;;4975417;28;20585;-76
2022/12/15 15:39:35;;;;;;;0.10;0.10;;;;;;;;;;4974469;28;20262;-76
2022/12/15 15:42:11;;;;;;;0.10;0.10;;;;;;;;;;4975033;28;20206;-76
2022/12/15 15:44:40;;;;;;;0.10;0.10;;;;;;;;;;4974332;28;20309;-76
2022/12/15 15:47:16;;;;;;;0.10;0.10;;;;;;;;;;4974546;28;20293;-77
2022/12/15 15:49:48;;;;;;;0.10;0.10;;;;;;;;;;4974558;28;20199;-77
2022/12/15 15:52:16;;;;;;;0.10;0.10;;;;;;;;;;4974739;28;20298;-77
2022/12/15 15:54:45;;;;;;;0.10;0.10;;;;;;;;;;4954218;28;20269;-77
2022/12/15 15:57:15;;;;;;;0.10;0.10;;;;;;;;;;4963208;28;20252;-77
2022/12/15 15:59:43;;;;;;;0.13;0.13;;;;;;;;;;4974115;28;20463;-77
2022/12/15 16:02:13;;;;;;;0.10;0.10;;;;;;;;;;4973963;28;20210;-76
2022/12/15 16:04:42;;;;;;;0.10;0.10;;;;;;;;;;4974232;28;20318;-76
2022/12/15 16:07:17;;;;;;;0.10;0.10;;;;;;;;;;4974138;28;20257;-76
2022/12/15 16:09:46;;;;;;;0.10;0.10;;;;;;;;;;4966202;28;20195;-76
2022/12/15 16:12:21;;;;;;;0.10;0.10;;;;;;;;;;4973976;28;20207;-77
2022/12/15 16:14:50;;;;;;;0.10;0.10;;;;;;;;;;4974174;28;20251;-76
2022/12/15 16:17:18;;;;;;;0.10;0.10;;;;;;;;;;4974361;28;20267;-76
2022/12/15 16:19:47;;;;;;;0.10;0.10;;;;;;;;;;4972487;28;20297;-79
2022/12/15 16:22:18;;;;;;;0.10;0.10;;;;;;;;;;4628920;28;10000242;-76
2022/12/15 16:24:47;;;;;;;0.10;0.10;;;;;;;;;;4972306;28;20630;-76
2022/12/15 16:27:15;;;;;;;0.10;0.10;;;;;;;;;;4971504;28;20237;-76
2022/12/15 16:29:44;;;;;;;0.10;0.10;;;;;;;;;;4971624;28;20620;-76
2022/12/15 16:32:12;;;;;;;0.10;0.10;;;;;;;;;;4971992;28;20256;-76
2022/12/15 16:34:41;;;;;;;0.10;0.10;;;;;;;;;;4971884;28;20230;-76
2022/12/15 16:37:19;;;;;;;0.10;0.10;;;;;;;;;;4971729;28;20777;-76
2022/12/15 16:39:49;;;;;;;0.10;0.10;;;;;;;;;;4970991;28;20210;-76
2022/12/15 16:42:17;;;;;;;0.20;0.20;;;;;;;;;;4967575;28;20227;-77
2022/12/15 16:44:46;;;;;;;0.10;0.10;;;;;;;;;;4966275;28;20311;-77
2022/12/15 16:47:14;;;;;;;0.10;0.10;;;;;;;;;;4971372;28;20293;-77
2022/12/15 16:49:44;;;;;;;0.10;0.10;;;;;;;;;;4967359;28;20246;-77
2022/12/15 16:52:17;;;;;;;0.10;0.10;;;;;;;;;;4962568;28;20212;-77
2022/12/15 16:54:48;;;;;;;0.10;0.10;;;;;;;;;;4968100;28;20257;-77
2022/12/15 16:57:18;;;;;;;0.10;0.10;;;;;;;;;;4971547;28;20250;-77
2022/12/15 16:59:48;;;;;;;0.10;0.10;;;;;;;;;;4971414;28;20209;-77
2022/12/15 17:02:24;;;;;;;0.10;0.10;;;;;;;;;;4971301;28;20252;-77
2022/12/15 17:04:54;;;;;;;0.10;0.10;;;;;;;;;;4971198;28;20596;-77
2022/12/15 17:07:24;;;;;;;0.10;0.10;;;;;;;;;;4973258;28;20618;-77
2022/12/15 17:09:52;;;;;;;0.10;0.10;;;;;;;;;;4971423;28;20616;-77
2022/12/15 17:12:22;;;;;;;0.10;0.10;;;;;;;;;;4976802;28;20292;-77
2022/12/15 17:14:50;;;;;;;0.10;0.10;;;;;;;;;;4964604;28;20333;-77
2022/12/15 17:17:20;;;;;;;0.10;0.10;;;;;;;;;;4972502;28;20242;-77
2022/12/15 17:19:50;;;;;;;0.10;0.10;;;;;;;;;;4975836;28;20250;-77
2022/12/15 17:22:39;;;;;;;0.10;0.10;;;;;;;;;;4972302;28;20263;-77
2022/12/15 17:25:16;;;;;;;0.10;0.10;;;;;;;;;;4976668;28;20632;-77
2022/12/15 17:28:07;;;;;;;0.10;0.10;;;;;;;;;;4962709;28;20210;-78
2022/12/15 17:30:35;;;;;;;0.10;0.10;;;;;;;;;;4966011;28;20237;-79